sensor_id;sensor_type;location;lat;lon;timestamp;pressure;altitude;pressure_sealevel;temperature;humidity
65553;BME280;52465;51.560;14.368;2022-12-20T00:04:03;100776.69;;;4.91;63.59
65553;BME280;52465;51.560;14.368;2022-12-20T00:09:06;100761.97;;;4.79;63.46
65553;BME280;52465;51.560;14.368;2022-12-20T00:11:40;100764.25;;;4.84;63.17
65553;BME280;52465;51.560;14.368;2022-12-20T00:14:08;100786.84;;;4.94;63.42
65553;BME280;52465;51.560;14.368;2022-12-20T00:16:35;100784.97;;;4.96;63.36
65553;BME280;52465;51.560;14.368;2022-12-20T00:21:34;100749.00;;;4.79;63.09
65553;BME280;52465;51.560;14.368;2022-12-20T00:24:00;100775.66;;;4.94;63.52
65553;BME280;52465;51.560;14.368;2022-12-20T00:26:28;100763.00;;;4.89;63.31
65553;BME280;52465;51.560;14.368;2022-12-20T00:29:06;100748.78;;;4.82;63.51
65553;BME280;52465;51.560;14.368;2022-12-20T00:31:32;100772.81;;;4.97;63.38
65553;BME280;52465;51.560;14.368;2022-12-20T00:33:59;100763.81;;;4.90;63.35
65553;BME280;52465;51.560;14.368;2022-12-20T00:36:28;100741.72;;;4.84;63.49
65553;BME280;52465;51.560;14.368;2022-12-20T00:38:55;100766.81;;;4.96;63.45
65553;BME280;52465;51.560;14.368;2022-12-20T00:41:24;100779.56;;;4.99;63.63
65553;BME280;52465;51.560;14.368;2022-12-20T00:43:53;100776.13;;;4.99;63.47
65553;BME280;52465;51.560;14.368;2022-12-20T00:46:19;100764.09;;;4.98;63.45
65553;BME280;52465;51.560;14.368;2022-12-20T00:48:57;100739.13;;;4.84;63.29
65553;BME280;52465;51.560;14.368;2022-12-20T00:51:26;100741.28;;;4.90;63.58
65553;BME280;52465;51.560;14.368;2022-12-20T00:53:54;100728.53;;;4.87;63.29
65553;BME280;52465;51.560;14.368;2022-12-20T00:56:20;100726.66;;;4.89;63.48
65553;BME280;52465;51.560;14.368;2022-12-20T00:58:46;100736.50;;;4.97;63.07
65553;BME280;52465;51.560;14.368;2022-12-20T01:01:21;100720.44;;;4.92;63.50
65553;BME280;52465;51.560;14.368;2022-12-20T01:03:51;100736.38;;;4.98;63.29
65553;BME280;52465;51.560;14.368;2022-12-20T01:06:20;100720.81;;;4.98;63.21
65553;BME280;52465;51.560;14.368;2022-12-20T01:08:46;100699.50;;;4.82;63.39
65553;BME280;52465;51.560;14.368;2022-12-20T01:11:14;100727.56;;;5.01;63.41
65553;BME280;52465;51.560;14.368;2022-12-20T01:13:43;100724.66;;;4.93;63.20
65553;BME280;52465;51.560;14.368;2022-12-20T01:16:29;100737.22;;;4.99;63.22
65553;BME280;52465;51.560;14.368;2022-12-20T01:18:54;100719.84;;;4.88;63.70
65553;BME280;52465;51.560;14.368;2022-12-20T01:21:22;100703.47;;;4.75;63.23
65553;BME280;52465;51.560;14.368;2022-12-20T01:23:48;100719.84;;;4.88;63.42
65553;BME280;52465;51.560;14.368;2022-12-20T01:26:17;100747.00;;;4.95;63.18
65553;BME280;52465;51.560;14.368;2022-12-20T01:28:47;100745.00;;;4.99;63.42
65553;BME280;52465;51.560;14.368;2022-12-20T01:31:16;100731.31;;;4.97;63.30
65553;BME280;52465;51.560;14.368;2022-12-20T01:33:43;100725.91;;;5.00;63.58
65553;BME280;52465;51.560;14.368;2022-12-20T01:36:19;100714.78;;;4.98;63.22
65553;BME280;52465;51.560;14.368;2022-12-20T01:38:45;100711.16;;;5.00;63.45
65553;BME280;52465;51.560;14.368;2022-12-20T01:41:18;100715.53;;;5.00;63.29
65553;BME280;52465;51.560;14.368;2022-12-20T01:44:03;100701.31;;;4.93;63.08
65553;BME280;52465;51.560;14.368;2022-12-20T01:46:32;100707.25;;;4.95;63.28
65553;BME280;52465;51.560;14.368;2022-12-20T01:49:05;100720.59;;;5.01;63.47
65553;BME280;52465;51.560;14.368;2022-12-20T01:51:37;100703.81;;;4.94;63.64
65553;BME280;52465;51.560;14.368;2022-12-20T01:54:18;100712.44;;;4.95;63.63
65553;BME280;52465;51.560;14.368;2022-12-20T01:56:51;100688.78;;;4.87;63.29
65553;BME280;52465;51.560;14.368;2022-12-20T01:59:23;100687.25;;;4.84;63.48
65553;BME280;52465;51.560;14.368;2022-12-20T02:01:49;100707.13;;;4.96;63.21
65553;BME280;52465;51.560;14.368;2022-12-20T02:04:16;100641.19;;;4.51;63.16
65553;BME280;52465;51.560;14.368;2022-12-20T02:06:42;100673.34;;;4.85;63.34
65553;BME280;52465;51.560;14.368;2022-12-20T02:09:07;100703.16;;;5.03;63.13
65553;BME280;52465;51.560;14.368;2022-12-20T02:12:05;100714.47;;;5.02;63.60
65553;BME280;52465;51.560;14.368;2022-12-20T02:23:32;100691.13;;;5.02;63.27
65553;BME280;52465;51.560;14.368;2022-12-20T02:31:39;100682.72;;;4.99;63.26
65553;BME280;52465;51.560;14.368;2022-12-20T02:34:11;100668.78;;;4.89;63.07
65553;BME280;52465;51.560;14.368;2022-12-20T02:36:38;100671.50;;;4.98;63.56
65553;BME280;52465;51.560;14.368;2022-12-20T02:39:03;100682.84;;;4.97;63.67
65553;BME280;52465;51.560;14.368;2022-12-20T02:41:36;100678.47;;;4.98;63.06
65553;BME280;52465;51.560;14.368;2022-12-20T02:44:10;100679.91;;;5.02;63.36
65553;BME280;52465;51.560;14.368;2022-12-20T02:46:41;100681.81;;;5.00;63.32
65553;BME280;52465;51.560;14.368;2022-12-20T02:49:11;100688.31;;;5.06;63.63
65553;BME280;52465;51.560;14.368;2022-12-20T02:51:43;100640.88;;;4.80;63.26
65553;BME280;52465;51.560;14.368;2022-12-20T02:54:10;100674.59;;;5.03;63.51
65553;BME280;52465;51.560;14.368;2022-12-20T02:56:44;100686.75;;;5.03;63.63
65553;BME280;52465;51.560;14.368;2022-12-20T02:59:24;100677.66;;;4.97;63.61
65553;BME280;52465;51.560;14.368;2022-12-20T03:01:54;100640.78;;;4.81;63.50
65553;BME280;52465;51.560;14.368;2022-12-20T03:04:26;100675.66;;;5.01;63.39
65553;BME280;52465;51.560;14.368;2022-12-20T03:07:11;100680.53;;;5.06;63.83
65553;BME280;52465;51.560;14.368;2022-12-20T03:09:38;100661.97;;;4.99;63.39
65553;BME280;52465;51.560;14.368;2022-12-20T03:12:08;100664.56;;;4.99;63.45
65553;BME280;52465;51.560;14.368;2022-12-20T03:14:36;100659.03;;;5.03;63.63
65553;BME280;52465;51.560;14.368;2022-12-20T03:17:03;100658.78;;;4.95;63.46
65553;BME280;52465;51.560;14.368;2022-12-20T03:19:29;100681.25;;;5.08;63.62
65553;BME280;52465;51.560;14.368;2022-12-20T03:21:54;100666.69;;;4.94;63.39
65553;BME280;52465;51.560;14.368;2022-12-20T03:24:20;100638.09;;;4.83;63.64
65553;BME280;52465;51.560;14.368;2022-12-20T03:26:46;100649.34;;;4.94;63.41
65553;BME280;52465;51.560;14.368;2022-12-20T03:29:11;100665.28;;;5.01;63.70
65553;BME280;52465;51.560;14.368;2022-12-20T03:31:37;100664.03;;;5.07;63.66
65553;BME280;52465;51.560;14.368;2022-12-20T03:34:05;100647.50;;;5.08;63.34
65553;BME280;52465;51.560;14.368;2022-12-20T03:36:32;100649.28;;;5.07;63.46
65553;BME280;52465;51.560;14.368;2022-12-20T03:38:59;100637.56;;;5.01;63.26
65553;BME280;52465;51.560;14.368;2022-12-20T03:41:25;100606.97;;;4.83;63.70
65553;BME280;52465;51.560;14.368;2022-12-20T03:43:50;100635.19;;;4.98;63.65
65553;BME280;52465;51.560;14.368;2022-12-20T03:46:16;100633.09;;;5.03;63.67
65553;BME280;52465;51.560;14.368;2022-12-20T03:48:42;100632.59;;;4.98;63.52
65553;BME280;52465;51.560;14.368;2022-12-20T03:51:08;100620.06;;;4.92;63.42
65553;BME280;52465;51.560;14.368;2022-12-20T03:53:34;100638.59;;;4.99;63.40
65553;BME280;52465;51.560;14.368;2022-12-20T03:55:59;100656.94;;;5.09;63.35
65553;BME280;52465;51.560;14.368;2022-12-20T03:58:25;100650.31;;;5.04;63.81
65553;BME280;52465;51.560;14.368;2022-12-20T04:00:51;100620.41;;;4.88;63.55
65553;BME280;52465;51.560;14.368;2022-12-20T04:03:17;100656.00;;;5.10;63.57
65553;BME280;52465;51.560;14.368;2022-12-20T04:05:42;100648.16;;;4.98;63.69
65553;BME280;52465;51.560;14.368;2022-12-20T04:08:08;100664.59;;;5.10;63.60
65553;BME280;52465;51.560;14.368;2022-12-20T04:10:33;100671.34;;;5.13;63.71
65553;BME280;52465;51.560;14.368;2022-12-20T04:13:12;100667.19;;;5.10;63.07
65553;BME280;52465;51.560;14.368;2022-12-20T04:15:37;100565.19;;;4.50;63.27
65553;BME280;52465;51.560;14.368;2022-12-20T04:18:02;100639.69;;;4.96;63.70
65553;BME280;52465;51.560;14.368;2022-12-20T04:20:28;100634.28;;;4.99;63.30
65553;BME280;52465;51.560;14.368;2022-12-20T04:22:53;100656.94;;;5.09;63.46
65553;BME280;52465;51.560;14.368;2022-12-20T04:25:20;100656.72;;;5.12;63.62
65553;BME280;52465;51.560;14.368;2022-12-20T04:27:45;100642.75;;;5.01;63.56
65553;BME280;52465;51.560;14.368;2022-12-20T04:30:11;100642.88;;;5.00;63.81
65553;BME280;52465;51.560;14.368;2022-12-20T04:32:36;100652.38;;;5.12;63.29
65553;BME280;52465;51.560;14.368;2022-12-20T04:35:03;100654.47;;;5.07;63.72
65553;BME280;52465;51.560;14.368;2022-12-20T04:37:29;100621.97;;;4.90;63.58
65553;BME280;52465;51.560;14.368;2022-12-20T04:39:55;100658.50;;;5.11;63.61
65553;BME280;52465;51.560;14.368;2022-12-20T04:42:21;100662.75;;;5.12;63.58
65553;BME280;52465;51.560;14.368;2022-12-20T04:44:47;100653.53;;;5.08;63.28
65553;BME280;52465;51.560;14.368;2022-12-20T04:47:12;100600.78;;;4.72;63.32
65553;BME280;52465;51.560;14.368;2022-12-20T04:49:38;100634.47;;;4.96;63.22
65553;BME280;52465;51.560;14.368;2022-12-20T04:52:03;100624.47;;;5.03;63.87
65553;BME280;52465;51.560;14.368;2022-12-20T04:54:47;100642.94;;;5.11;63.58
65553;BME280;52465;51.560;14.368;2022-12-20T04:57:13;100611.25;;;4.95;63.26
65553;BME280;52465;51.560;14.368;2022-12-20T04:59:38;100650.34;;;5.16;63.75
65553;BME280;52465;51.560;14.368;2022-12-20T05:02:04;100637.75;;;5.11;63.29
65553;BME280;52465;51.560;14.368;2022-12-20T05:04:30;100639.84;;;5.06;63.41
65553;BME280;52465;51.560;14.368;2022-12-20T05:06:55;100650.47;;;5.14;63.71
65553;BME280;52465;51.560;14.368;2022-12-20T05:09:21;100646.69;;;5.07;63.71
65553;BME280;52465;51.560;14.368;2022-12-20T05:11:48;100650.59;;;5.13;63.51
65553;BME280;52465;51.560;14.368;2022-12-20T05:14:16;100644.09;;;5.07;63.68
65553;BME280;52465;51.560;14.368;2022-12-20T05:16:44;100657.22;;;5.17;63.84
65553;BME280;52465;51.560;14.368;2022-12-20T05:19:10;100642.09;;;5.11;63.79
65553;BME280;52465;51.560;14.368;2022-12-20T05:21:35;100646.34;;;5.12;63.78
65553;BME280;52465;51.560;14.368;2022-12-20T05:24:19;100646.69;;;5.07;63.44
65553;BME280;52465;51.560;14.368;2022-12-20T05:27:03;100654.13;;;5.12;63.41
65553;BME280;52465;51.560;14.368;2022-12-20T05:29:28;100644.78;;;5.09;63.67
65553;BME280;52465;51.560;14.368;2022-12-20T05:31:54;100635.59;;;5.05;63.78
65553;BME280;52465;51.560;14.368;2022-12-20T05:34:20;100653.69;;;5.18;63.51
65553;BME280;52465;51.560;14.368;2022-12-20T05:36:46;100655.47;;;5.17;63.49
65553;BME280;52465;51.560;14.368;2022-12-20T05:39:11;100635.47;;;5.07;63.53
65553;BME280;52465;51.560;14.368;2022-12-20T05:41:37;100652.63;;;5.20;63.70
65553;BME280;52465;51.560;14.368;2022-12-20T05:44:03;100657.00;;;5.20;63.51
65553;BME280;52465;51.560;14.368;2022-12-20T05:46:29;100640.09;;;5.14;63.78
65553;BME280;52465;51.560;14.368;2022-12-20T05:48:54;100650.84;;;5.21;63.67
65553;BME280;52465;51.560;14.368;2022-12-20T05:51:22;100656.41;;;5.27;63.62
65553;BME280;52465;51.560;14.368;2022-12-20T05:53:48;100662.34;;;5.29;63.33
65553;BME280;52465;51.560;14.368;2022-12-20T05:56:13;100656.09;;;5.32;63.48
65553;BME280;52465;51.560;14.368;2022-12-20T05:58:38;100652.31;;;5.36;63.61
65553;BME280;52465;51.560;14.368;2022-12-20T06:01:05;100660.38;;;5.44;63.54
65553;BME280;52465;51.560;14.368;2022-12-20T06:03:35;100656.72;;;5.47;63.56
65553;BME280;52465;51.560;14.368;2022-12-20T06:06:01;100644.91;;;5.43;63.48
65553;BME280;52465;51.560;14.368;2022-12-20T06:08:26;100644.44;;;5.49;63.22
65553;BME280;52465;51.560;14.368;2022-12-20T06:10:52;100648.69;;;5.50;63.14
65553;BME280;52465;51.560;14.368;2022-12-20T06:13:18;100647.41;;;5.55;63.12
65553;BME280;52465;51.560;14.368;2022-12-20T06:15:43;100628.66;;;5.52;63.13
65553;BME280;52465;51.560;14.368;2022-12-20T06:18:08;100631.16;;;5.65;63.51
65553;BME280;52465;51.560;14.368;2022-12-20T06:20:35;100596.53;;;5.42;63.12
65553;BME280;52465;51.560;14.368;2022-12-20T06:23:01;100608.00;;;5.50;63.47
65553;BME280;52465;51.560;14.368;2022-12-20T06:25:30;100621.72;;;5.64;63.38
65553;BME280;52465;51.560;14.368;2022-12-20T06:27:56;100617.81;;;5.58;63.20
65553;BME280;52465;51.560;14.368;2022-12-20T06:30:21;100613.44;;;5.58;63.40
65553;BME280;52465;51.560;14.368;2022-12-20T06:32:47;100619.44;;;5.59;63.34
65553;BME280;52465;51.560;14.368;2022-12-20T06:35:13;100607.16;;;5.61;63.46
65553;BME280;52465;51.560;14.368;2022-12-20T06:37:39;100614.63;;;5.66;63.42
65553;BME280;52465;51.560;14.368;2022-12-20T06:40:08;100605.44;;;5.62;63.09
65553;BME280;52465;51.560;14.368;2022-12-20T06:42:33;100612.25;;;5.63;63.06
65553;BME280;52465;51.560;14.368;2022-12-20T06:44:59;100624.44;;;5.73;63.39
65553;BME280;52465;51.560;14.368;2022-12-20T06:47:24;100613.94;;;5.75;63.10
65553;BME280;52465;51.560;14.368;2022-12-20T06:49:50;100619.25;;;5.73;63.06
65553;BME280;52465;51.560;14.368;2022-12-20T06:52:15;100634.94;;;5.83;63.05
65553;BME280;52465;51.560;14.368;2022-12-20T06:54:40;100623.16;;;5.79;63.40
65553;BME280;52465;51.560;14.368;2022-12-20T06:57:06;100628.91;;;5.82;63.34
65553;BME280;52465;51.560;14.368;2022-12-20T06:59:31;100620.19;;;5.83;63.23
65553;BME280;52465;51.560;14.368;2022-12-20T07:01:57;100630.34;;;5.87;63.24
65553;BME280;52465;51.560;14.368;2022-12-20T07:04:23;100613.22;;;5.73;63.08
65553;BME280;52465;51.560;14.368;2022-12-20T07:06:48;100630.47;;;5.85;63.25
65553;BME280;52465;51.560;14.368;2022-12-20T07:09:14;100611.19;;;5.65;63.45
65553;BME280;52465;51.560;14.368;2022-12-20T07:11:39;100628.91;;;5.82;63.29
65553;BME280;52465;51.560;14.368;2022-12-20T07:14:08;100615.44;;;5.77;63.36
65553;BME280;52465;51.560;14.368;2022-12-20T07:16:34;100622.31;;;5.78;63.09
65553;BME280;52465;51.560;14.368;2022-12-20T07:19:00;100637.66;;;5.81;62.94
65553;BME280;52465;51.560;14.368;2022-12-20T07:21:26;100644.78;;;5.91;63.44
65553;BME280;52465;51.560;14.368;2022-12-20T07:23:54;100628.22;;;5.80;63.30
65553;BME280;52465;51.560;14.368;2022-12-20T07:26:19;100649.88;;;5.92;63.24
65553;BME280;52465;51.560;14.368;2022-12-20T07:28:45;100608.59;;;5.65;63.27
65553;BME280;52465;51.560;14.368;2022-12-20T07:31:12;100643.03;;;5.91;63.30
65553;BME280;52465;51.560;14.368;2022-12-20T07:33:38;100621.72;;;5.86;62.96
65553;BME280;52465;51.560;14.368;2022-12-20T07:36:06;100627.63;;;5.88;63.44
65553;BME280;52465;51.560;14.368;2022-12-20T07:38:35;100608.72;;;5.75;63.18
65553;BME280;52465;51.560;14.368;2022-12-20T07:43:43;100637.19;;;5.88;62.99
65553;BME280;52465;51.560;14.368;2022-12-20T07:46:09;100649.06;;;5.92;62.96
65553;BME280;52465;51.560;14.368;2022-12-20T07:48:36;100609.19;;;5.69;63.20
65553;BME280;52465;51.560;14.368;2022-12-20T07:51:05;100641.94;;;5.94;63.32
65553;BME280;52465;51.560;14.368;2022-12-20T07:53:34;100624.94;;;5.90;63.22
65553;BME280;52465;51.560;14.368;2022-12-20T07:56:02;100608.38;;;5.79;63.61
65553;BME280;52465;51.560;14.368;2022-12-20T07:58:31;100608.75;;;5.86;63.65
65553;BME280;52465;51.560;14.368;2022-12-20T08:00:58;100564.22;;;5.57;63.31
65553;BME280;52465;51.560;14.368;2022-12-20T08:03:27;100623.25;;;5.89;63.56
65553;BME280;52465;51.560;14.368;2022-12-20T08:06:03;100614.06;;;5.84;63.40
65553;BME280;52465;51.560;14.368;2022-12-20T08:08:31;100610.72;;;5.82;63.19
65553;BME280;52465;51.560;14.368;2022-12-20T08:11:00;100615.38;;;5.90;63.15
65553;BME280;52465;51.560;14.368;2022-12-20T08:13:26;100620.66;;;5.89;63.74
65553;BME280;52465;51.560;14.368;2022-12-20T08:15:52;100614.75;;;5.87;63.34
65553;BME280;52465;51.560;14.368;2022-12-20T08:18:17;100553.91;;;5.55;63.34
65553;BME280;52465;51.560;14.368;2022-12-20T08:20:43;100614.41;;;5.80;63.33
65553;BME280;52465;51.560;14.368;2022-12-20T08:23:08;100623.97;;;5.91;63.53
65553;BME280;52465;51.560;14.368;2022-12-20T08:25:34;100593.38;;;5.72;63.46
65553;BME280;52465;51.560;14.368;2022-12-20T08:27:59;100601.88;;;5.74;63.72
65553;BME280;52465;51.560;14.368;2022-12-20T08:30:27;100600.34;;;5.82;63.50
65553;BME280;52465;51.560;14.368;2022-12-20T08:32:54;100611.22;;;5.88;63.44
65553;BME280;52465;51.560;14.368;2022-12-20T08:35:20;100632.50;;;5.93;63.52
65553;BME280;52465;51.560;14.368;2022-12-20T08:37:45;100621.84;;;5.84;63.17
65553;BME280;52465;51.560;14.368;2022-12-20T08:40:11;100607.31;;;5.71;62.75
65553;BME280;52465;51.560;14.368;2022-12-20T08:42:37;100633.78;;;5.87;63.51
65553;BME280;52465;51.560;14.368;2022-12-20T08:45:06;100638.03;;;5.88;63.58
65553;BME280;52465;51.560;14.368;2022-12-20T08:47:31;100635.09;;;5.93;63.60
65553;BME280;52465;51.560;14.368;2022-12-20T08:49:59;100638.03;;;5.88;63.39
65553;BME280;52465;51.560;14.368;2022-12-20T08:52:27;100660.13;;;5.94;63.40
65553;BME280;52465;51.560;14.368;2022-12-20T08:54:53;100625.16;;;5.75;63.32
65553;BME280;52465;51.560;14.368;2022-12-20T08:57:19;100620.06;;;5.74;63.43
65553;BME280;52465;51.560;14.368;2022-12-20T08:59:44;100635.53;;;5.87;63.15
65553;BME280;52465;51.560;14.368;2022-12-20T09:02:10;100613.22;;;5.73;63.13
65553;BME280;52465;51.560;14.368;2022-12-20T09:04:35;100637.81;;;5.91;63.64
65553;BME280;52465;51.560;14.368;2022-12-20T09:07:01;100627.88;;;5.85;63.15
65553;BME280;52465;51.560;14.368;2022-12-20T09:09:27;100600.59;;;5.68;63.50
65553;BME280;52465;51.560;14.368;2022-12-20T09:11:52;100631.03;;;5.89;63.44
65553;BME280;52465;51.560;14.368;2022-12-20T09:14:18;100617.69;;;5.82;63.05
65553;BME280;52465;51.560;14.368;2022-12-20T09:16:43;100632.81;;;5.88;63.14
65553;BME280;52465;51.560;14.368;2022-12-20T09:19:11;100637.81;;;5.91;63.17
65553;BME280;52465;51.560;14.368;2022-12-20T09:21:37;100640.31;;;5.93;63.19
65553;BME280;52465;51.560;14.368;2022-12-20T09:24:03;100595.47;;;5.67;63.05
65553;BME280;52465;51.560;14.368;2022-12-20T09:26:28;100638.84;;;5.89;63.50
65553;BME280;52465;51.560;14.368;2022-12-20T09:28:54;100635.41;;;5.88;63.48
65553;BME280;52465;51.560;14.368;2022-12-20T09:31:22;100637.69;;;5.93;63.21
65553;BME280;52465;51.560;14.368;2022-12-20T09:33:48;100635.94;;;5.93;63.41
65553;BME280;52465;51.560;14.368;2022-12-20T09:36:16;100634.47;;;5.89;63.44
65553;BME280;52465;51.560;14.368;2022-12-20T09:38:43;100637.53;;;5.83;63.50
65553;BME280;52465;51.560;14.368;2022-12-20T09:44:09;100623.16;;;5.90;63.53
65553;BME280;52465;51.560;14.368;2022-12-20T09:46:38;100631.88;;;5.89;63.29
65553;BME280;52465;51.560;14.368;2022-12-20T09:49:04;100624.81;;;5.80;63.81
65553;BME280;52465;51.560;14.368;2022-12-20T09:54:41;100637.81;;;5.91;63.39
65553;BME280;52465;51.560;14.368;2022-12-20T09:59:57;100613.47;;;5.81;63.22
65553;BME280;52465;51.560;14.368;2022-12-20T10:02:25;100630.94;;;5.90;63.50
65553;BME280;52465;51.560;14.368;2022-12-20T10:04:52;100633.47;;;5.92;63.41
65553;BME280;52465;51.560;14.368;2022-12-20T10:17:53;100635.94;;;5.93;63.47
65553;BME280;52465;51.560;14.368;2022-12-20T10:26:10;100619.13;;;5.86;63.71
65553;BME280;52465;51.560;14.368;2022-12-20T10:28:37;100628.13;;;5.93;63.37
65553;BME280;52465;51.560;14.368;2022-12-20T10:31:14;100592.19;;;5.76;63.31
65553;BME280;52465;51.560;14.368;2022-12-20T10:33:47;100619.50;;;5.93;63.42
65553;BME280;52465;51.560;14.368;2022-12-20T10:38:56;100606.75;;;5.90;63.75
65553;BME280;52465;51.560;14.368;2022-12-20T10:41:24;100608.28;;;5.92;63.48
65553;BME280;52465;51.560;14.368;2022-12-20T10:43:55;100615.47;;;5.89;63.22
65553;BME280;52465;51.560;14.368;2022-12-20T10:51:51;100554.88;;;5.66;63.25
65553;BME280;52465;51.560;14.368;2022-12-20T10:56:59;100577.09;;;5.81;63.71
65553;BME280;52465;51.560;14.368;2022-12-20T10:59:34;100572.97;;;5.78;63.37
65553;BME280;52465;51.560;14.368;2022-12-20T11:07:27;100555.34;;;5.71;63.11
65553;BME280;52465;51.560;14.368;2022-12-20T11:09:56;100569.19;;;5.94;63.54
65553;BME280;52465;51.560;14.368;2022-12-20T11:12:21;100574.63;;;5.91;63.20
65553;BME280;52465;51.560;14.368;2022-12-20T11:14:48;100582.50;;;5.89;63.34
65553;BME280;52465;51.560;14.368;2022-12-20T11:17:35;100585.59;;;5.94;63.60
65553;BME280;52465;51.560;14.368;2022-12-20T11:20:13;100574.28;;;5.95;63.62
65553;BME280;52465;51.560;14.368;2022-12-20T11:25:35;100550.31;;;5.92;62.99
65553;BME280;52465;51.560;14.368;2022-12-20T11:28:19;100548.41;;;5.94;63.45
65553;BME280;52465;51.560;14.368;2022-12-20T11:36:25;100540.50;;;5.95;63.52
65553;BME280;52465;51.560;14.368;2022-12-20T11:44:24;100536.94;;;5.85;63.34
65553;BME280;52465;51.560;14.368;2022-12-20T11:55:17;100510.25;;;5.94;63.71
65553;BME280;52465;51.560;14.368;2022-12-20T11:57:58;100485.00;;;5.74;63.74
65553;BME280;52465;51.560;14.368;2022-12-20T12:00:26;100498.22;;;5.93;63.24
65553;BME280;52465;51.560;14.368;2022-12-20T12:03:10;100464.44;;;5.71;63.49
65553;BME280;52465;51.560;14.368;2022-12-20T12:05:45;100497.63;;;5.90;63.57
65553;BME280;52465;51.560;14.368;2022-12-20T12:11:09;100474.13;;;5.80;63.53
65553;BME280;52465;51.560;14.368;2022-12-20T12:13:38;100453.22;;;5.70;63.39
65553;BME280;52465;51.560;14.368;2022-12-20T12:16:05;100474.59;;;5.96;63.48
65553;BME280;52465;51.560;14.368;2022-12-20T12:18:37;100486.16;;;5.92;63.43
65553;BME280;52465;51.560;14.368;2022-12-20T12:26:10;100471.88;;;5.98;63.73
65553;BME280;52465;51.560;14.368;2022-12-20T12:28:37;100489.22;;;5.97;63.47
65553;BME280;52465;51.560;14.368;2022-12-20T12:31:06;100460.19;;;5.81;63.54
65553;BME280;52465;51.560;14.368;2022-12-20T12:33:45;100480.16;;;5.92;63.62
65553;BME280;52465;51.560;14.368;2022-12-20T12:36:45;100472.69;;;5.87;63.10
65553;BME280;52465;51.560;14.368;2022-12-20T12:39:24;100455.56;;;5.84;63.54
65553;BME280;52465;51.560;14.368;2022-12-20T12:42:05;100491.00;;;5.97;63.42
65553;BME280;52465;51.560;14.368;2022-12-20T12:44:49;100476.25;;;5.97;63.03
65553;BME280;52465;51.560;14.368;2022-12-20T12:47:29;100455.81;;;5.93;63.45
65553;BME280;52465;51.560;14.368;2022-12-20T12:50:04;100460.19;;;5.92;63.56
65553;BME280;52465;51.560;14.368;2022-12-20T12:55:35;100449.44;;;5.97;63.58
65553;BME280;52465;51.560;14.368;2022-12-20T13:11:35;100441.78;;;5.95;63.57
65553;BME280;52465;51.560;14.368;2022-12-20T13:16:40;100401.50;;;5.78;63.13
65553;BME280;52465;51.560;14.368;2022-12-20T13:19:17;100432.28;;;5.94;63.29
65553;BME280;52465;51.560;14.368;2022-12-20T13:21:45;100441.50;;;5.98;63.66
65553;BME280;52465;51.560;14.368;2022-12-20T13:27:15;100439.88;;;5.97;63.60
65553;BME280;52465;51.560;14.368;2022-12-20T13:30:22;100421.81;;;5.96;63.52
65553;BME280;52465;51.560;14.368;2022-12-20T13:37:58;100446.84;;;5.97;63.79
65553;BME280;52465;51.560;14.368;2022-12-20T13:43:23;100423.44;;;5.97;63.55
65553;BME280;52465;51.560;14.368;2022-12-20T13:51:18;100416.84;;;5.93;63.52
65553;BME280;52465;51.560;14.368;2022-12-20T13:58:55;100432.06;;;5.97;63.37
65553;BME280;52465;51.560;14.368;2022-12-20T14:01:23;100433.03;;;5.96;63.48
65553;BME280;52465;51.560;14.368;2022-12-20T14:03:52;100434.66;;;5.97;63.43
65553;BME280;52465;51.560;14.368;2022-12-20T14:06:19;100422.84;;;5.93;63.59
65553;BME280;52465;51.560;14.368;2022-12-20T14:08:48;100416.22;;;5.89;63.37
65553;BME280;52465;51.560;14.368;2022-12-20T14:11:22;100420.72;;;5.98;63.63
65553;BME280;52465;51.560;14.368;2022-12-20T14:16:28;100433.03;;;5.96;63.51
65553;BME280;52465;51.560;14.368;2022-12-20T14:21:22;100395.91;;;5.83;63.73
65553;BME280;52465;51.560;14.368;2022-12-20T14:23:51;100407.50;;;5.90;63.33
65553;BME280;52465;51.560;14.368;2022-12-20T14:26:29;100414.94;;;5.95;63.15
65553;BME280;52465;51.560;14.368;2022-12-20T14:28:59;100394.03;;;5.85;63.66
65553;BME280;52465;51.560;14.368;2022-12-20T14:36:36;100369.97;;;5.72;63.67
65553;BME280;52465;51.560;14.368;2022-12-20T14:41:42;100402.31;;;5.90;63.62
65553;BME280;52465;51.560;14.368;2022-12-20T14:44:12;100411.50;;;5.94;63.54
65553;BME280;52465;51.560;14.368;2022-12-20T14:46:46;100398.97;;;5.88;63.65
65553;BME280;52465;51.560;14.368;2022-12-20T14:51:43;100374.81;;;5.76;63.46
65553;BME280;52465;51.560;14.368;2022-12-20T14:56:49;100383.06;;;5.81;63.64
65553;BME280;52465;51.560;14.368;2022-12-20T14:59:21;100400.28;;;5.94;63.42
65553;BME280;52465;51.560;14.368;2022-12-20T15:01:49;100389.22;;;5.92;63.71
65553;BME280;52465;51.560;14.368;2022-12-20T15:06:48;100367.03;;;5.76;63.72
65553;BME280;52465;51.560;14.368;2022-12-20T15:09:14;100368.44;;;5.80;63.47
65553;BME280;52465;51.560;14.368;2022-12-20T15:11:44;100380.69;;;5.90;63.71
65553;BME280;52465;51.560;14.368;2022-12-20T15:14:33;100385.03;;;5.89;63.65
65553;BME280;52465;51.560;14.368;2022-12-20T15:17:02;100363.00;;;5.72;63.85
65553;BME280;52465;51.560;14.368;2022-12-20T15:19:28;100395.31;;;5.91;63.32
65553;BME280;52465;51.560;14.368;2022-12-20T15:21:55;100397.47;;;5.97;63.28
65553;BME280;52465;51.560;14.368;2022-12-20T15:24:23;100400.63;;;6.00;63.36
65553;BME280;52465;51.560;14.368;2022-12-20T15:26:50;100397.41;;;6.08;63.62
65553;BME280;52465;51.560;14.368;2022-12-20T15:29:21;100393.63;;;6.12;63.17
65553;BME280;52465;51.560;14.368;2022-12-20T15:31:48;100372.72;;;6.14;63.39
65553;BME280;52465;51.560;14.368;2022-12-20T15:36:52;100375.88;;;6.38;62.76
65553;BME280;52465;51.560;14.368;2022-12-20T15:39:17;100384.00;;;6.45;62.59